Currently 71°F in Anza, California, USA
71°F
95°F / 60°F
7 mph NW
0.00"
Thursday, June 21, 2018 10:13 PM PDT

Anza, California Weather Summary
Last 36 Hours

Temperature Winds Hourly Humidity Dewpoint
Time Report Norm Report Norm Max Gusts Precip. Rpt. Norm Rpt. Norm Pressure
1Thu 10:13 PM  70.6°F  67°F  7 mph NW  6 mph  11 mph  0.00"  56%  50%  54°F  47°F  N/A
Thu 10:00 PM  71.3°F  67°F  7 mph NW  6 mph  12 mph  0.00"  55%  49%  54°F  47°F  N/A
Thu 09:00 PM  73.7°F  70°F  5 mph SW  7 mph  14 mph  0.00"  53%  45%  55°F  47°F  N/A
Thu 08:00 PM  79.3°F  75°F  9 mph NW  8 mph  16 mph  0.00"  46%  38%  56°F  47°F  N/A
Thu 07:00 PM  85.9°F  81°F  8 mph NW  12 mph  18 mph  0.00"  34%  31%  53°F  46°F  N/A
Thu 06:00 PM  89.8°F  85°F  10 mph NW  13 mph  20 mph  0.00"  26%  25%  49°F  44°F  N/A
Thu 05:00 PM  92.1°F  87°F  12 mph W  13 mph  21 mph  0.00"  21%  22%  45°F  43°F  N/A
Thu 04:00 PM  94.2°F  89°F  15 mph W  13 mph  22 mph  0.00"  16%  19%  39°F  41°F  N/A
Thu 03:00 PM  95.1°F  90°F  13 mph W  13 mph  21 mph  0.00"  16%  17%  40°F  39°F  N/A
Thu 02:00 PM  94.2°F  90°F  14 mph W  12 mph  21 mph  0.00"  16%  16%  40°F  37°F  N/A
2Thu 01:36 PM  95.5°F  90°F  14 mph W  12 mph  19 mph  ----  18%  16%  44°F  37°F  N/A
Thu 01:00 PM  93.8°F  90°F  4 mph SW  12 mph  14 mph  0.00"  16%  16%  40°F  36°F  N/A
Thu 12:00 PM  91.1°F  89°F  10 mph SE  11 mph  16 mph  0.00"  17%  17%  39°F  36°F  N/A
Thu 11:00 AM  92.3°F  87°F  9 mph S  10 mph  14 mph  0.00"  15%  17%  37°F  36°F  N/A
Thu 10:00 AM  91.2°F  85°F  6 mph SE  9 mph  11 mph  0.00"  15%  19%  36°F  36°F  N/A
Thu 09:00 AM  90.4°F  81°F  calm  9 mph  9 mph  0.00"  15%  23%  35°F  38°F  N/A
Thu 08:00 AM  85.4°F  76°F  5 mph NW  8 mph  7 mph  0.00"  17%  29%  35°F  41°F  N/A
Thu 07:00 AM  76.4°F  68°F  2 mph NE  6 mph  5 mph  0.00"  32%  41%  43°F  43°F  N/A
Thu 06:00 AM  64.8°F  61°F  3 mph SW  4 mph  5 mph  0.00"  41%  48%  40°F  41°F  N/A
Thu 05:00 AM  61.6°F  62°F  2 mph S  4 mph  6 mph  0.00"  43%  49%  38°F  41°F  N/A
Thu 04:00 AM  60.6°F  62°F  2 mph N  5 mph  6 mph  0.00"  44%  50%  38°F  42°F  N/A
3Thu 03:52 AM  60.3°F  62°F  3 mph S  5 mph  6 mph  ----  45%  50%  38°F  42°F  N/A
Thu 03:00 AM  68.4°F  63°F  calm  5 mph  none  0.00"  35%  51%  39°F  43°F  N/A
Thu 02:00 AM  68.7°F  63°F  calm  5 mph  none  0.00"  38%  51%  41°F  44°F  N/A
Thu 01:00 AM  68.0°F  63°F  calm  6 mph  6 mph  0.00"  46%  52%  46°F  45°F  N/A
Thu 12:00 AM  69.7°F  64°F  4 mph S  7 mph  8 mph  0.00"  46%  52%  47°F  45°F  N/A
Wed 11:00 PM  68.1°F  65°F  4 mph SE  7 mph  9 mph  0.00"  60%  52%  53°F  46°F  N/A
Wed 10:00 PM  71.9°F  67°F  5 mph NW  6 mph  8 mph  0.00"  56%  48%  55°F  46°F  N/A
Wed 09:00 PM  75.8°F  69°F  5 mph N  7 mph  9 mph  0.00"  49%  44%  55°F  46°F  N/A
Wed 08:00 PM  80.6°F  74°F  5 mph NW  8 mph  15 mph  0.00"  39%  38%  53°F  46°F  N/A
Wed 07:00 PM  86.5°F  80°F  10 mph W  12 mph  19 mph  0.00"  33%  30%  53°F  45°F  N/A
Wed 06:00 PM  90.3°F  84°F  12 mph W  13 mph  20 mph  0.00"  28%  25%  51°F  43°F  N/A
Wed 05:00 PM  93.0°F  87°F  14 mph W  13 mph  20 mph  0.00"  24%  22%  50°F  42°F  N/A
Wed 04:00 PM  94.0°F  88°F  6 mph SE  13 mph  14 mph  0.00"  13%  19%  35°F  40°F  N/A
Wed 03:00 PM  94.0°F  89°F  8 mph SE  13 mph  17 mph  0.00"  13%  18%  33°F  38°F  N/A
Wed 02:00 PM  92.3°F  90°F  5 mph SE  12 mph  19 mph  0.00"  11%  16%  28°F  37°F  N/A
Wed 01:00 PM  91.8°F  89°F  12 mph SE  12 mph  21 mph  0.00"  14%  16%  34°F  36°F  N/A
Wed 12:00 PM  90.2°F  88°F  11 mph SE  11 mph  18 mph  0.00"  15%  17%  35°F  36°F  N/A
Wed 11:00 AM  89.1°F  87°F  9 mph SE  10 mph  16 mph  0.00"  18%  17%  38°F  35°F  N/A

  1. Current weather data. No green row appears if the current weather data is also the high or low for the current day.
  2. High temperature for the current day.
  3. Low temperature for the current day.

The Anza, California weather pages are a service of WeatherCurrents. The Anza Valley is southwestern Riverside County, east of Temecula and Aguanga, south of Mount San Jacinto and west of Mount Santa Rosa.
Copyright ©Thu Jun 21 22:14:26 PDT 2018  WeatherCurrents. All rights reserved. - Submit questions and comments - Privacy Policy

This page automatically refreshes every 10 minutes.